KLGA

Laguardia Airport

New York, New York, USA
METAR KLGA 180751Z 33012KT 10SM BKN080 23/16 A2982 RMK AO2 SLP097 T02330161 $
Observed Flight Rules
Jul-18 @ 07:51 UTC (31 minutes ago) Visual Flight Rules
Wind Visibility Clouds
330° at 12 knots 10 miles
  • Broken at 8,000' AGL
Temperatures Readings
Current 23°C / 73°F
Dewpoint 16°C / 61°F
Humidity 65%
Altimeter 29.82" Hg
Pressure 1009.7 hPa
Elevation 11
METAR KLGA 180751Z 33012KT 10SM BKN080 23/16 A2982 RMK AO2 SLP097 T02330161 $
Observed Flight Rules
Jul-18 @ 07:51 UTC
(31 minutes ago)
VFR
Wind Visibility
330° at 12 knots 10 miles
Clouds
  • Broken at 8,000' AGL
Temperature Dewpoint
23°C / 73°F 16°C / 61°F
Humidity Altimeter Pressure
65% 29.82" Hg 1009.7 hPa